Time;durP1;ratioP1;P1;durP2;ratioP2;P2;SDS_P1;SDS_P2;PMS_P1;PMS_P2;Temp;Humidity;BMP_temperature;BMP_pressure;BME280_temperature;BME280_humidity;BME280_pressure;Samples;Min_cycle;Max_cycle;Signal;HPM_P1;HPM_P2
2021/10/25 00:01:31;;;;;;;9.02;5.38;;;;;;;18.12;66.06;101029.91;4981202;28;20112;-62
2021/10/25 00:03:58;;;;;;;17.38;8.65;;;;;;;18.08;65.44;101023.22;4977974;28;20133;-64
2021/10/25 00:06:25;;;;;;;15.43;9.27;;;;;;;18.04;65.80;101016.53;4986596;28;20137;-63
2021/10/25 00:08:52;;;;;;;13.13;8.05;;;;;;;18.16;65.92;101030.13;4986767;28;20054;-63
2021/10/25 00:11:19;;;;;;;14.80;7.47;;;;;;;18.18;65.68;101030.59;4985275;28;20537;-63
2021/10/25 00:13:46;;;;;;;14.30;6.95;;;;;;;18.19;65.43;101033.13;4991055;28;20065;-64
2021/10/25 00:16:13;;;;;;;18.65;8.82;;;;;;;18.10;65.86;101026.56;4982895;28;20121;-63
2021/10/25 00:18:40;;;;;;;19.58;10.13;;;;;;;18.11;65.60;101028.22;4990641;28;20059;-60
2021/10/25 00:21:07;;;;;;;17.02;8.80;;;;;;;18.08;65.86;101028.88;4991375;28;20141;-59
2021/10/25 00:23:33;;;;;;;15.88;9.13;;;;;;;18.04;65.92;101019.34;4988705;28;20074;-60
2021/10/25 00:26:02;;;;;;;13.80;7.97;;;;;;;18.18;65.65;101019.31;4987478;28;20089;-60
2021/10/25 00:28:29;;;;;;;17.75;7.45;;;;;;;18.20;65.66;101017.00;4990240;28;20133;-61
2021/10/25 00:30:56;;;;;;;10.63;6.45;;;;;;;17.93;65.44;100975.56;4979406;28;20102;-68
2021/10/25 00:33:23;;;;;;;20.52;9.63;;;;;;;18.17;65.39;101006.34;4990689;28;20082;-68
2021/10/25 00:35:50;;;;;;;20.15;10.48;;;;;;;18.16;65.23;101001.84;4989384;28;20125;-61
2021/10/25 00:38:17;;;;;;;14.82;9.18;;;;;;;18.18;65.21;101005.16;4983143;28;20562;-61
2021/10/25 00:40:44;;;;;;;14.32;8.45;;;;;;;18.27;65.39;101022.22;4994118;28;20054;-61
2021/10/25 00:43:11;;;;;;;16.50;9.70;;;;;;;18.21;65.52;101016.66;4983927;28;20149;-60
2021/10/25 00:45:38;;;;;;;13.52;8.25;;;;;;;18.19;65.36;101016.16;4991920;28;20129;-60
2021/10/25 00:48:05;;;;;;;14.80;8.63;;;;;;;18.19;65.27;101013.34;4993991;28;20058;-61
2021/10/25 00:50:32;;;;;;;16.48;7.85;;;;;;;18.17;65.30;101007.16;4993373;28;20125;-60
2021/10/25 00:52:59;;;;;;;14.82;7.78;;;;;;;18.10;65.22;101005.94;4982947;28;20078;-63
2021/10/25 00:55:26;;;;;;;12.68;7.00;;;;;;;17.91;65.18;100989.16;4992347;28;20122;-63
2021/10/25 00:57:53;;;;;;;13.32;7.65;;;;;;;17.62;65.22;100950.84;4987859;28;20138;-65
2021/10/25 01:00:20;;;;;;;14.65;7.13;;;;;;;17.82;65.68;100991.09;4981406;28;20133;-65
2021/10/25 01:02:47;;;;;;;17.52;8.50;;;;;;;17.76;65.77;100993.19;4992651;28;20129;-66
2021/10/25 01:05:14;;;;;;;14.65;7.78;;;;;;;17.66;65.77;100982.94;4984555;28;20047;-67
2021/10/25 01:07:42;;;;;;;16.92;8.25;;;;;;;17.58;65.28;100983.69;4978824;28;20125;-63
2021/10/25 01:10:10;;;;;;;14.38;7.68;;;;;;;17.52;65.54;100982.97;4981735;28;20097;-64
2021/10/25 01:12:37;;;;;;;19.15;8.38;;;;;;;17.39;65.20;100971.69;4990289;28;20074;-62
2021/10/25 01:15:04;;;;;;;15.05;8.77;;;;;;;17.24;65.17;100965.25;4992903;28;20081;-68
2021/10/25 01:17:31;;;;;;;16.08;8.48;;;;;;;17.29;64.94;100984.88;4989886;28;20125;-68
2021/10/25 01:19:59;;;;;;;19.45;9.82;;;;;;;17.11;65.49;100977.38;4990700;28;20133;-64
2021/10/25 01:22:26;;;;;;;16.53;9.17;;;;;;;16.99;65.23;100961.00;4982906;28;20052;-64
2021/10/25 01:24:54;;;;;;;19.33;10.15;;;;;;;16.92;65.71;100956.88;4989592;28;20062;-64
2021/10/25 01:27:21;;;;;;;21.60;10.25;;;;;;;17.01;65.70;100989.72;4985532;28;20134;-66
2021/10/25 01:29:49;;;;;;;25.60;11.80;;;;;;;16.99;65.55;100980.72;4978032;28;20359;-66
2021/10/25 01:32:16;;;;;;;20.90;10.87;;;;;;;16.95;66.02;100985.31;4983754;28;20074;-62
2021/10/25 01:34:43;;;;;;;21.77;11.50;;;;;;;16.84;66.05;100971.75;4990961;28;20153;-62
2021/10/25 01:37:10;;;;;;;25.60;11.50;;;;;;;16.87;66.20;100974.75;4990098;28;20052;-63
2021/10/25 01:39:37;;;;;;;22.53;9.97;;;;;;;16.87;65.95;100976.75;4978478;28;20090;-62
2021/10/25 01:42:04;;;;;;;25.10;12.07;;;;;;;16.74;65.98;100962.31;4980444;28;20125;-62
2021/10/25 01:44:31;;;;;;;24.52;12.57;;;;;;;16.80;66.30;100971.53;4983178;28;20047;-62
2021/10/25 01:46:58;;;;;;;26.25;12.48;;;;;;;16.72;66.60;100964.59;4983362;28;20406;-62
2021/10/25 01:49:25;;;;;;;23.73;11.57;;;;;;;16.54;66.25;100937.31;4980033;28;20066;-64
2021/10/25 01:51:52;;;;;;;27.40;12.73;;;;;;;16.75;66.68;100971.59;4981207;28;20125;-64
2021/10/25 01:54:20;;;;;;;29.77;13.47;;;;;;;16.71;66.52;100968.53;4987583;28;20094;-62
2021/10/25 01:56:47;;;;;;;25.80;12.60;;;;;;;16.67;66.90;100961.88;4981149;28;20054;-64
2021/10/25 01:59:14;;;;;;;28.20;12.27;;;;;;;16.67;66.80;100961.88;4987326;28;20140;-64
2021/10/25 02:01:41;;;;;;;25.60;12.47;;;;;;;16.70;66.89;100968.88;4989257;28;20050;-67
2021/10/25 02:04:08;;;;;;;26.03;12.00;;;;;;;16.57;66.87;100956.41;4982544;28;20097;-66
2021/10/25 02:06:35;;;;;;;29.93;13.20;;;;;;;16.63;67.04;100966.47;4984089;28;20561;-65
2021/10/25 02:09:02;;;;;;;31.57;14.87;;;;;;;16.67;67.36;100967.50;4985671;28;20569;-65
2021/10/25 02:11:30;;;;;;;34.93;15.60;;;;;;;16.68;67.44;100973.97;4979089;28;20465;-65
2021/10/25 02:13:57;;;;;;;26.77;13.33;;;;;;;16.66;67.28;100959.38;4983815;28;20093;-64
2021/10/25 02:16:24;;;;;;;29.40;12.68;;;;;;;16.63;67.40;100968.44;4984311;28;20077;-62
2021/10/25 02:18:52;;;;;;;28.13;12.33;;;;;;;16.60;67.31;100964.25;4991126;28;20051;-67
2021/10/25 02:21:19;;;;;;;29.03;14.07;;;;;;;16.65;67.41;100964.19;4980456;28;20080;-64
2021/10/25 02:23:46;;;;;;;32.57;14.17;;;;;;;16.66;67.59;100970.66;4987958;28;20125;-65
2021/10/25 02:26:13;;;;;;;33.87;13.03;;;;;;;16.33;67.64;100926.41;4986217;28;20090;-64
2021/10/25 02:28:41;;;;;;;26.40;12.30;;;;;;;16.59;67.68;100971.06;4987069;28;20140;-65
2021/10/25 02:31:08;;;;;;;27.30;11.37;;;;;;;16.58;68.02;100969.38;4989003;28;20077;-62
2021/10/25 02:33:35;;;;;;;26.80;12.83;;;;;;;16.58;67.96;100964.59;4992838;28;20050;-65
2021/10/25 02:36:05;;;;;;;25.53;12.27;;;;;;;16.57;68.04;100956.41;4992072;28;20038;-65
2021/10/25 02:38:34;;;;;;;29.02;12.80;;;;;;;16.47;67.89;100936.88;4977757;28;20047;-64
2021/10/25 02:41:01;;;;;;;26.83;11.20;;;;;;;16.40;67.75;100934.47;4991267;28;20046;-62
2021/10/25 02:43:28;;;;;;;23.73;11.63;;;;;;;16.56;68.05;100954.75;4992222;28;20130;-62
2021/10/25 02:45:57;;;;;;;28.53;12.30;;;;;;;16.55;67.92;100953.09;4985129;28;20100;-62
2021/10/25 02:48:25;;;;;;;27.77;11.38;;;;;;;16.54;67.70;100955.06;4985767;28;20058;-64
2021/10/25 02:50:53;;;;;;;27.93;11.70;;;;;;;16.40;67.89;100930.81;4989887;28;20089;-64
2021/10/25 02:53:20;;;;;;;29.13;11.18;;;;;;;16.52;67.83;100948.06;4993307;28;20129;-64
2021/10/25 02:55:47;;;;;;;25.70;11.53;;;;;;;16.40;67.62;100930.81;4988488;28;20058;-63
2021/10/25 02:58:15;;;;;;;24.30;11.87;;;;;;;16.48;67.74;100947.03;4982802;28;20133;-63
2021/10/25 03:00:42;;;;;;;35.50;12.23;;;;;;;16.49;67.90;100957.16;4993125;28;20514;-62
2021/10/25 03:03:10;;;;;;;46.03;12.40;;;;;;;16.43;67.84;100947.13;4993997;28;20053;-63
2021/10/25 03:05:37;;;;;;;29.10;12.37;;;;;;;16.46;67.72;100954.94;4989913;28;20465;-63
2021/10/25 03:08:04;;;;;;;27.83;12.13;;;;;;;16.43;67.67;100955.56;4989221;28;20146;-63
2021/10/25 03:10:31;;;;;;;31.87;11.67;;;;;;;16.41;68.08;100957.84;4980692;28;20038;-64
2021/10/25 03:12:57;;;;;;;25.77;11.63;;;;;;;16.41;67.62;100958.72;4987117;28;20081;-64
2021/10/25 03:15:25;;;;;;;147.00;23.97;;;;;;;16.39;68.16;100946.06;4987072;28;20046;-64
2021/10/25 03:17:52;;;;;;;40.70;13.40;;;;;;;16.13;68.06;100901.44;4989116;28;20081;-66
2021/10/25 03:20:19;;;;;;;59.00;13.40;;;;;;;16.34;67.75;100938.53;4995087;28;20100;-63
2021/10/25 03:22:46;;;;;;;22.27;11.13;;;;;;;16.31;67.93;100934.34;4990658;28;20046;-64
2021/10/25 03:25:13;;;;;;;30.57;12.60;;;;;;;16.22;67.70;100919.31;4990666;28;20137;-65
2021/10/25 03:27:40;;;;;;;54.77;13.47;;;;;;;16.22;67.77;100924.09;4982657;28;20467;-64
2021/10/25 03:30:08;;;;;;;62.40;14.70;;;;;;;16.25;68.00;100920.66;4984493;28;20410;-64
2021/10/25 03:32:35;;;;;;;26.47;12.17;;;;;;;16.28;67.86;100926.53;4983321;28;20086;-63
2021/10/25 03:35:03;;;;;;;29.30;11.40;;;;;;;16.26;67.91;100917.53;4978898;28;20134;-63
2021/10/25 03:37:33;;;;;;;30.80;12.67;;;;;;;16.26;67.78;100920.34;4978520;28;20479;-63
2021/10/25 03:40:01;;;;;;;29.63;13.10;;;;;;;16.28;68.10;100925.69;4989952;28;20078;-63
2021/10/25 03:42:34;;;;;;;28.57;12.83;;;;;;;16.28;68.12;100923.72;4982739;28;20173;-63
2021/10/25 03:45:38;;;;;;;50.20;12.83;;;;;;;16.20;68.26;100915.94;4988974;28;20141;-64
2021/10/25 03:50:25;;;;;;;22.77;10.90;;;;;;;16.19;68.26;100916.28;4977507;28;20225;-65
2021/10/25 03:52:58;;;;;;;25.95;11.13;;;;;;;16.19;68.07;100917.09;4991241;28;20457;-63
2021/10/25 03:56:13;;;;;;;45.47;12.63;;;;;;;16.24;67.99;100908.56;4985558;28;20081;-62
2021/10/25 04:30:20;;;;;;;26.33;9.97;;;;;;;16.07;68.22;100888.59;4990254;28;20133;-63
2021/10/25 04:32:48;;;;;;;24.37;10.80;;;;;;;16.00;67.90;100876.88;4984342;28;20134;-63
2021/10/25 04:35:15;;;;;;;24.00;10.83;;;;;;;16.02;68.11;100886.69;4984318;28;20125;-61
2021/10/25 04:37:41;;;;;;;20.53;11.20;;;;;;;15.98;68.18;100882.00;4980782;28;20051;-61
2021/10/25 04:40:09;;;;;;;21.37;9.97;;;;;;;16.03;68.23;100902.47;4984398;28;20094;-62
2021/10/25 04:42:36;;;;;;;18.47;8.77;;;;;;;16.02;68.29;100897.13;4989208;28;20111;-62
2021/10/25 04:45:04;;;;;;;19.57;9.77;;;;;;;15.94;68.20;100890.22;4981901;28;20133;-62
2021/10/25 04:47:30;;;;;;;23.13;10.40;;;;;;;15.97;67.89;100900.06;4991058;28;20443;-65
2021/10/25 04:49:57;;;;;;;23.73;10.77;;;;;;;15.98;68.17;100901.72;4984668;28;20138;-62
2021/10/25 04:52:27;;;;;;;23.90;11.17;;;;;;;15.97;68.28;100900.06;4990195;28;20145;-61
2021/10/25 04:54:53;;;;;;;24.15;10.60;;;;;;;15.96;67.88;100896.38;4990851;28;20050;-58
2021/10/25 04:57:20;;;;;;;22.70;11.30;;;;;;;15.89;67.86;100907.19;4981050;28;20080;-59
2021/10/25 04:59:47;;;;;;;21.77;10.63;;;;;;;15.86;68.00;100907.81;4990956;28;20133;-60
2021/10/25 05:02:14;;;;;;;22.43;10.23;;;;;;;15.84;67.88;100910.94;4983669;28;20558;-62
2021/10/25 05:04:42;;;;;;;25.77;11.13;;;;;;;15.79;67.98;100916.66;4980762;28;20435;-62
2021/10/25 05:07:09;;;;;;;97.23;13.00;;;;;;;15.82;67.90;100932.09;4981262;28;20465;-62
2021/10/25 05:09:35;;;;;;;195.70;19.17;;;;;;;15.80;67.94;100929.63;4982547;28;20465;-62
2021/10/25 05:12:02;;;;;;;211.97;18.10;;;;;;;15.72;68.30;100906.94;4990597;28;20042;-60
2021/10/25 05:14:29;;;;;;;273.97;23.30;;;;;;;15.76;68.33;100933.31;4989845;28;20121;-59
2021/10/25 05:16:56;;;;;;;290.37;28.37;;;;;;;15.68;68.34;100928.41;4987436;28;20121;-60
2021/10/25 05:19:23;;;;;;;153.57;23.00;;;;;;;15.70;68.46;100929.78;4982865;28;20495;-60
2021/10/25 05:21:50;;;;;;;22.10;10.27;;;;;;;15.69;68.80;100930.06;4991573;28;20129;-65
2021/10/25 05:24:17;;;;;;;32.37;12.40;;;;;;;15.70;68.65;100921.31;4990372;28;20134;-65
2021/10/25 05:26:44;;;;;;;29.40;11.63;;;;;;;15.75;68.67;100928.84;4990585;28;20090;-66
2021/10/25 05:29:11;;;;;;;27.97;11.23;;;;;;;15.54;68.92;100888.91;4983940;28;20196;-64
2021/10/25 05:31:38;;;;;;;72.83;13.97;;;;;;;15.85;69.00;100926.69;4985519;28;20121;-63
2021/10/25 05:34:05;;;;;;;24.80;10.67;;;;;;;15.71;68.88;100911.72;4985751;28;20046;-63
2021/10/25 05:36:31;;;;;;;31.40;10.93;;;;;;;15.90;69.14;100936.19;4999713;28;20145;-63
2021/10/25 05:38:58;;;;;;;24.10;11.47;;;;;;;15.87;69.01;100930.06;4985977;28;21864;-63
2021/10/25 05:41:27;;;;;;;63.47;14.97;;;;;;;15.79;69.60;100930.72;4987332;28;20414;-62
2021/10/25 05:43:54;;;;;;;73.37;13.23;;;;;;;15.62;69.54;100913.53;4980649;28;20133;-62
2021/10/25 05:46:20;;;;;;;44.33;11.77;;;;;;;15.53;70.03;100921.00;4983992;28;20121;-63
2021/10/25 05:48:50;;;;;;;36.80;11.23;;;;;;;15.14;71.06;100902.41;4985538;28;20163;-63
2021/10/25 05:51:17;;;;;;;57.72;11.93;;;;;;;15.04;71.71;100925.06;4987415;28;20042;-62
2021/10/25 05:53:46;;;;;;;65.73;12.50;;;;;;;14.85;72.80;100931.50;4983653;28;20046;-59
2021/10/25 05:56:14;;;;;;;43.87;11.67;;;;;;;14.55;72.91;100898.97;4986332;28;20050;-60
2021/10/25 05:58:41;;;;;;;36.00;10.43;;;;;;;14.72;73.25;100937.00;4980908;28;20043;-60
2021/10/25 06:01:12;;;;;;;61.33;12.73;;;;;;;14.73;73.09;100935.84;4982455;28;20137;-60
2021/10/25 06:03:41;;;;;;;131.50;16.23;;;;;;;14.69;72.53;100921.56;4983097;28;20046;-61
2021/10/25 06:06:08;;;;;;;97.60;16.93;;;;;;;14.90;72.19;100939.84;4990751;28;20137;-61
2021/10/25 06:08:38;;;;;;;72.70;16.43;;;;;;;14.97;71.82;100925.44;4984652;28;20105;-61
2021/10/25 06:11:05;;;;;;;62.87;15.40;;;;;;;14.77;71.66;100904.06;4983412;28;20125;-63
2021/10/25 06:13:38;;;;;;;100.23;16.63;;;;;;;15.12;71.47;100938.47;4980697;28;20185;-60
2021/10/25 06:16:17;;;;;;;105.70;18.60;;;;;;;15.25;71.41;100948.16;4979800;28;20050;-60
2021/10/25 06:18:44;;;;;;;62.60;16.53;;;;;;;15.30;71.34;100928.38;4983699;28;20050;-60
2021/10/25 06:21:11;;;;;;;62.17;17.67;;;;;;;15.16;71.25;100898.19;4987492;28;20060;-61
2021/10/25 06:23:39;;;;;;;66.60;16.47;;;;;;;15.39;71.20;100949.91;4988356;28;20056;-61
2021/10/25 06:26:06;;;;;;;60.87;17.43;;;;;;;15.48;71.13;100946.41;4978378;28;20134;-61
2021/10/25 06:28:33;;;;;;;62.67;19.27;;;;;;;15.59;71.21;100959.22;4978030;28;20057;-61
2021/10/25 06:31:09;;;;;;;59.93;17.83;;;;;;;15.52;71.19;100933.38;4980397;28;20157;-61
2021/10/25 06:33:42;;;;;;;96.47;20.13;;;;;;;15.69;70.96;100959.09;4986930;28;20133;-61
2021/10/25 06:36:09;;;;;;;45.00;14.67;;;;;;;15.58;70.94;100946.25;4987895;28;20077;-61
2021/10/25 06:38:41;;;;;;;68.80;15.43;;;;;;;15.58;70.96;100949.06;4978540;28;20047;-63
2021/10/25 06:41:08;;;;;;;34.67;13.03;;;;;;;15.46;70.86;100948.69;4982488;28;20082;-58
2021/10/25 06:43:35;;;;;;;34.30;13.10;;;;;;;15.34;71.05;100955.59;4982414;28;20141;-62
2021/10/25 06:46:03;;;;;;;28.63;11.77;;;;;;;15.20;71.42;100953.84;4982291;28;20051;-62
2021/10/25 06:48:31;;;;;;;42.30;14.27;;;;;;;14.90;72.10;100928.59;4983003;28;20042;-62
2021/10/25 06:50:58;;;;;;;47.97;13.50;;;;;;;14.89;72.40;100955.06;4981245;28;20482;-63
2021/10/25 06:53:25;;;;;;;29.87;12.20;;;;;;;14.77;72.74;100949.03;4986137;28;20050;-63
2021/10/25 06:55:52;;;;;;;25.13;12.07;;;;;;;14.71;72.74;100953.03;4989666;28;20092;-63
2021/10/25 06:58:21;;;;;;;28.33;13.83;;;;;;;14.72;72.77;100963.13;4977159;28;20082;-63
2021/10/25 07:00:48;;;;;;;29.93;13.23;;;;;;;14.51;72.61;100894.25;4983988;28;20137;-63
2021/10/25 07:03:16;;;;;;;26.90;13.57;;;;;;;14.92;72.63;100957.28;4973411;28;20059;-62
2021/10/25 07:05:43;;;;;;;26.27;13.67;;;;;;;14.93;72.74;100961.75;4991163;28;20538;-62
2021/10/25 07:08:13;;;;;;;29.30;13.63;;;;;;;14.88;73.16;100961.84;4992327;28;20074;-62
2021/10/25 07:10:40;;;;;;;34.55;15.02;;;;;;;14.82;73.02;100962.19;4979410;28;20049;-63
2021/10/25 07:13:16;;;;;;;39.57;14.87;;;;;;;14.89;72.98;100971.94;4992224;28;20050;-62
2021/10/25 07:15:49;;;;;;;30.30;15.57;;;;;;;15.01;72.69;100982.78;4991307;28;20629;-63
2021/10/25 07:18:26;;;;;;;42.67;17.57;;;;;;;15.15;72.35;100991.31;4976316;28;20047;-63
2021/10/25 08:11:59;;;;;;;22.00;10.43;;;;;;;14.69;76.48;101000.28;4981026;28;20137;-62
2021/10/25 08:14:33;;;;;;;27.10;11.93;;;;;;;14.71;77.20;101000.00;4989629;28;20087;-62
2021/10/25 08:17:01;;;;;;;23.30;9.30;;;;;;;14.65;77.63;101010.44;4990156;28;20046;-62
2021/10/25 08:19:30;;;;;;;24.73;11.43;;;;;;;14.67;77.51;101019.44;4987701;28;20058;-62
2021/10/25 08:22:08;;;;;;;28.60;12.80;;;;;;;14.72;77.18;101018.53;4978540;28;20153;-62
2021/10/25 08:24:39;;;;;;;34.47;14.73;;;;;;;15.02;76.13;101022.97;4975114;28;20077;-62
2021/10/25 08:27:07;;;;;;;35.73;15.63;;;;;;;15.18;75.87;100999.16;4996946;28;20133;-61
2021/10/25 08:29:35;;;;;;;24.93;13.37;;;;;;;15.46;75.29;101022.72;4987958;28;20078;-61
2021/10/25 08:32:44;;;;;;;24.33;12.50;;;;;;;15.52;75.02;101018.69;4987375;28;20126;-61
2021/10/25 08:40:18;;;;;;;24.40;13.63;;;;;;;16.05;73.82;101040.19;4992655;28;20078;-61
2021/10/25 08:42:45;;;;;;;28.75;13.50;;;;;;;16.19;73.74;101031.78;4991552;28;20462;-61
2021/10/25 08:45:22;;;;;;;24.45;11.73;;;;;;;16.48;72.99;101038.06;4980008;28;20069;-60
2021/10/25 08:47:50;;;;;;;30.20;11.88;;;;;;;16.43;72.63;101023.22;4990679;28;20062;-61
2021/10/25 08:50:22;;;;;;;31.65;14.88;;;;;;;16.43;72.95;101035.31;4987877;28;20466;-61
2021/10/25 08:52:53;;;;;;;25.70;14.68;;;;;;;16.33;72.34;101033.50;4991837;28;20345;-61
2021/10/25 08:55:20;;;;;;;29.95;15.82;;;;;;;16.72;72.90;101042.72;4993268;28;20074;-60
2021/10/25 08:57:49;;;;;;;23.48;13.75;;;;;;;17.34;72.37;101051.69;4985032;28;20499;-60
2021/10/25 09:00:20;;;;;;;27.75;15.02;;;;;;;17.68;71.15;101045.59;4977483;28;20468;-61
2021/10/25 09:03:00;;;;;;;31.17;14.45;;;;;;;17.63;70.80;101027.91;4988376;28;20125;-61
2021/10/25 09:05:28;;;;;;;29.42;14.70;;;;;;;17.87;70.10;101050.28;4990257;28;20061;-61
2021/10/25 09:08:00;;;;;;;60.47;18.73;;;;;;;17.96;69.98;101054.03;4988511;28;20076;-61
2021/10/25 09:10:31;;;;;;;37.50;17.08;;;;;;;18.19;69.59;101055.75;4988904;28;20042;-60
2021/10/25 09:13:04;;;;;;;26.13;15.75;;;;;;;18.69;68.86;101055.59;4992947;28;20097;-60
2021/10/25 09:15:33;;;;;;;22.55;13.77;;;;;;;18.92;67.90;101030.13;4989959;28;20084;-60
2021/10/25 09:18:13;;;;;;;22.35;14.20;;;;;;;19.38;67.46;101046.66;4984971;28;20121;-60
2021/10/25 09:20:53;;;;;;;27.73;13.57;;;;;;;19.65;66.75;101058.91;4980721;28;20078;-60
2021/10/25 09:23:22;;;;;;;;;;;;;;;19.65;67.37;101059.72;4991043;28;20455;-61
2021/10/25 09:26:02;;;;;;;28.15;15.00;;;;;;;19.95;66.31;101057.13;4986364;28;20009;-61
2021/10/25 09:28:37;;;;;;;23.17;13.07;;;;;;;20.39;65.11;101054.31;4976962;28;20559;-70
2021/10/25 09:31:14;;;;;;;25.85;14.52;;;;;;;20.72;64.15;101069.66;4980547;28;20563;-66
2021/10/25 09:33:42;;;;;;;23.90;12.70;;;;;;;21.16;63.66;101070.38;4972965;28;20129;-67
2021/10/25 09:36:14;;;;;;;19.70;12.70;;;;;;;21.51;62.56;101068.22;4982479;28;20081;-68
2021/10/25 09:49:35;;;;;;;15.38;9.48;;;;;;;26.65;54.11;101070.53;4983911;28;20074;-71
2021/10/25 09:52:05;;;;;;;13.18;8.57;;;;;;;27.57;51.53;101054.25;4991387;28;20137;-67
2021/10/25 09:54:33;;;;;;;13.90;8.98;;;;;;;28.46;49.52;101049.03;4986827;28;20705;-70
2021/10/25 09:57:06;;;;;;;16.23;9.57;;;;;;;29.46;47.57;101073.13;4978444;28;20129;-68
2021/10/25 09:59:49;;;;;;;16.77;8.88;;;;;;;30.12;47.12;101069.53;4988491;28;20089;-67
2021/10/25 10:02:17;;;;;;;14.98;8.63;;;;;;;30.85;44.55;101073.22;4985508;28;20462;-69
2021/10/25 10:04:45;;;;;;;11.35;7.75;;;;;;;31.32;43.21;101068.41;4977477;28;20046;-69
2021/10/25 10:07:16;;;;;;;10.73;7.70;;;;;;;31.77;41.83;101077.47;4983734;28;20503;-69
2021/10/25 10:09:48;;;;;;;10.65;7.25;;;;;;;31.78;40.95;101044.47;4988743;28;20042;-68
2021/10/25 10:12:18;;;;;;;13.07;7.47;;;;;;;32.01;39.90;101070.03;4986404;28;20130;-71
2021/10/25 10:14:51;;;;;;;11.60;7.28;;;;;;;32.13;39.43;101062.97;4978093;28;20499;-70
2021/10/25 10:17:27;;;;;;;12.32;7.53;;;;;;;32.04;39.21;101056.84;4982053;28;20125;-69
2021/10/25 10:19:57;;;;;;;8.65;6.72;;;;;;;32.28;38.31;101079.06;4989565;28;20078;-70
2021/10/25 10:22:25;;;;;;;9.85;6.22;;;;;;;32.40;37.72;101083.53;4976884;28;20087;-69
2021/10/25 10:24:53;;;;;;;10.00;6.30;;;;;;;32.55;37.20;101093.03;4986749;28;20085;-70
2021/10/25 10:27:23;;;;;;;7.72;5.88;;;;;;;32.75;36.45;101081.78;4979304;28;20133;-69
2021/10/25 10:29:52;;;;;;;9.88;5.32;;;;;;;32.80;35.98;101061.91;4991499;28;20133;-68
2021/10/25 10:32:21;;;;;;;6.85;4.68;;;;;;;32.96;35.20;101075.09;4982645;28;20157;-69
2021/10/25 10:34:51;;;;;;;8.35;5.93;;;;;;;33.06;35.12;101077.13;4991047;28;20112;-70
2021/10/25 10:37:24;;;;;;;10.98;6.60;;;;;;;33.16;34.99;101076.19;4981964;28;20047;-63
2021/10/25 10:40:06;;;;;;;9.00;5.47;;;;;;;33.13;35.43;101077.06;4976674;28;20074;-64
2021/10/25 10:42:35;;;;;;;8.27;5.35;;;;;;;33.46;33.90;101068.94;4976581;28;20536;-65
2021/10/25 10:45:06;;;;;;;9.38;5.57;;;;;;;33.72;33.65;101067.53;4985169;28;20081;-65
2021/10/25 10:47:41;;;;;;;9.10;4.72;;;;;;;33.88;33.16;101084.31;4985815;28;20102;-66
2021/10/25 10:50:35;;;;;;;9.82;4.90;;;;;;;33.54;32.91;101078.41;4975276;28;20090;-65
2021/10/25 10:53:31;;;;;;;6.97;5.38;;;;;;;33.29;33.35;101073.63;4977979;28;20619;-65
2021/10/25 10:56:14;;;;;;;9.88;5.35;;;;;;;33.29;33.01;101081.50;4977957;28;20117;-65
2021/10/25 11:01:08;;;;;;;10.88;4.63;;;;;;;32.12;33.42;101075.78;4986156;28;20480;-64
2021/10/25 11:03:36;;;;;;;9.20;4.30;;;;;;;31.67;33.84;101083.25;4986097;28;20133;-64
2021/10/25 11:06:10;;;;;;;7.38;4.35;;;;;;;31.21;34.39;101081.94;4994312;28;20112;-64
2021/10/25 11:08:38;;;;;;;9.52;4.22;;;;;;;30.68;34.66;101082.59;4974951;28;20443;-63
2021/10/25 11:11:08;;;;;;;7.90;3.92;;;;;;;30.04;35.55;101067.84;4985025;28;20051;-64
2021/10/25 11:13:45;;;;;;;12.40;4.70;;;;;;;29.35;36.12;101060.69;4987084;28;20462;-64
2021/10/25 11:16:28;;;;;;;8.38;4.43;;;;;;;28.94;36.55;101074.22;4975719;28;20138;-64
2021/10/25 11:18:57;;;;;;;6.05;3.47;;;;;;;28.51;36.80;101080.31;4984328;28;20442;-64
2021/10/25 11:21:28;;;;;;;6.68;3.42;;;;;;;28.18;37.21;101088.84;4992061;28;20518;-64
2021/10/25 11:23:57;;;;;;;8.93;4.03;;;;;;;28.20;36.87;101069.16;4975686;28;20086;-64
2021/10/25 11:26:31;;;;;;;7.30;3.85;;;;;;;28.28;37.23;101071.75;4980337;28;20074;-64
2021/10/25 11:29:01;;;;;;;10.55;5.05;;;;;;;28.09;37.54;101057.53;4975894;28;20472;-64
2021/10/25 11:31:30;;;;;;;8.70;4.07;;;;;;;28.05;37.41;101073.88;4977020;28;20470;-64
2021/10/25 11:33:58;;;;;;;8.90;3.67;;;;;;;27.94;37.67;101084.38;4989748;28;20043;-64
2021/10/25 11:36:29;;;;;;;6.40;3.72;;;;;;;27.80;37.87;101070.63;4988907;28;20137;-64
2021/10/25 11:38:57;;;;;;;5.82;2.88;;;;;;;27.70;37.77;101069.22;5004037;28;20088;-65
2021/10/25 11:41:24;;;;;;;7.93;3.53;;;;;;;27.80;37.83;101062.84;5005157;28;20084;-65
2021/10/25 11:43:52;;;;;;;6.80;3.63;;;;;;;27.86;37.60;101061.31;4982841;28;20134;-65
2021/10/25 11:46:21;;;;;;;8.85;4.18;;;;;;;27.65;37.82;101047.41;4992789;28;20129;-65
2021/10/25 11:48:56;;;;;;;8.43;3.78;;;;;;;27.85;38.05;101061.69;4993329;28;20198;-65
2021/10/25 11:51:25;;;;;;;11.63;3.60;;;;;;;27.81;37.96;101057.94;4983794;28;20086;-65
2021/10/25 11:53:58;;;;;;;8.27;4.57;;;;;;;27.61;38.21;101058.00;4994697;28;20468;-65
2021/10/25 11:56:29;;;;;;;7.32;4.60;;;;;;;27.41;38.42;101051.50;4980489;28;20125;-65
2021/10/25 11:58:57;;;;;;;10.95;4.43;;;;;;;27.15;38.84;101062.94;4980783;28;20050;-65
2021/10/25 12:01:24;;;;;;;11.68;4.85;;;;;;;27.07;39.08;101041.88;4989951;28;20074;-66
2021/10/25 12:03:51;;;;;;;7.03;4.40;;;;;;;27.39;38.44;101058.88;4981547;28;20458;-67
2021/10/25 12:06:21;;;;;;;6.72;3.15;;;;;;;27.54;37.87;101042.72;4993961;28;20086;-66
2021/10/25 12:09:06;;;;;;;10.73;3.72;;;;;;;27.52;38.41;101025.91;4989950;28;20101;-66
2021/10/25 12:14:24;;;;;;;11.60;4.68;;;;;;;28.44;36.55;101025.59;4980788;28;20046;-66
2021/10/25 12:16:53;;;;;;;9.18;4.95;;;;;;;29.56;35.45;101036.22;4979559;28;20051;-67
2021/10/25 12:19:20;;;;;;;8.60;3.67;;;;;;;30.86;33.24;101028.72;4984064;28;20156;-69
2021/10/25 12:21:48;;;;;;;5.68;3.17;;;;;;;30.72;33.44;101034.44;4993543;28;20046;-66
2021/10/25 12:24:15;;;;;;;9.52;4.30;;;;;;;30.80;32.93;101015.09;4989933;28;20129;-66
2021/10/25 12:26:44;;;;;;;8.38;4.25;;;;;;;30.88;32.92;101003.19;4989298;28;20138;-64
2021/10/25 12:29:16;;;;;;;6.65;3.35;;;;;;;30.83;33.05;101006.47;4993489;28;20089;-65
2021/10/25 12:31:45;;;;;;;9.27;4.20;;;;;;;31.11;32.67;100999.09;4982382;28;20565;-66
2021/10/25 12:34:12;;;;;;;10.35;6.30;;;;;;;32.27;30.66;100989.88;4986247;28;20074;-63
2021/10/25 12:36:43;;;;;;;11.38;6.13;;;;;;;33.68;28.95;101000.13;4992160;28;20457;-67
2021/10/25 12:39:14;;;;;;;6.57;4.28;;;;;;;35.04;26.81;100993.44;4990010;28;20074;-64
2021/10/25 12:41:44;;;;;;;10.25;5.05;;;;;;;36.15;26.21;100990.66;4992610;28;20104;-64
2021/10/25 12:44:11;;;;;;;8.55;4.90;;;;;;;37.19;25.02;100992.06;4984526;28;20133;-64
2021/10/25 12:46:37;;;;;;;8.63;4.65;;;;;;;37.73;23.98;100976.09;4989075;28;20118;-65
2021/10/25 12:49:04;;;;;;;6.30;3.75;;;;;;;37.99;23.83;100977.06;4976065;28;20121;-64
2021/10/25 12:51:37;;;;;;;6.80;4.18;;;;;;;38.07;23.45;100970.56;4975668;28;20085;-64
2021/10/25 12:54:10;;;;;;;7.93;4.32;;;;;;;38.14;23.87;100969.53;4992027;28;20474;-65
2021/10/25 12:56:38;;;;;;;7.70;3.97;;;;;;;38.36;22.99;100969.72;4989041;28;20042;-65
2021/10/25 12:59:07;;;;;;;7.47;4.15;;;;;;;38.74;22.79;100972.72;4973803;28;20089;-65
2021/10/25 13:01:34;;;;;;;9.30;4.90;;;;;;;39.10;22.11;100971.56;4977994;28;20146;-64
2021/10/25 13:04:05;;;;;;;9.77;4.15;;;;;;;38.77;22.31;100944.66;4991176;28;20098;-62
2021/10/25 13:06:34;;;;;;;9.05;4.03;;;;;;;38.86;21.92;100950.66;4990503;28;20050;-62
2021/10/25 13:09:08;;;;;;;4.47;2.00;;;;;;;37.12;22.43;100945.66;4990260;28;20086;-62
2021/10/25 13:11:35;;;;;;;7.53;2.70;;;;;;;34.43;25.02;100947.09;4980911;28;20051;-62